Time;durP1;ratioP1;P1;durP2;ratioP2;P2;SDS_P1;SDS_P2;PMS_P1;PMS_P2;Temp;Humidity;BMP_temperature;BMP_pressure;BME280_temperature;BME280_humidity;BME280_pressure;Samples;Min_cycle;Max_cycle;Signal;HPM_P1;HPM_P2
2022/03/18 00:02:25;;;;;;;33.47;18.57;;;7.10;1.00;;;;;;5033256;28;20199;-83
2022/03/18 00:04:54;;;;;;;36.80;18.60;;;7.10;1.00;;;;;;5032170;28;20191;-82
2022/03/18 00:07:23;;;;;;;29.50;18.53;;;7.00;1.00;;;;;;5032109;28;20195;-85
2022/03/18 00:09:51;;;;;;;31.83;17.97;;;7.00;1.00;;;;;;5032089;28;20195;-83
2022/03/18 00:12:18;;;;;;;34.30;18.17;;;7.00;1.00;;;;;;5032373;28;20225;-85
2022/03/18 00:14:45;;;;;;;32.57;18.60;;;7.00;1.00;;;;;;5032046;28;20190;-82
2022/03/18 00:17:13;;;;;;;32.13;18.13;;;7.00;1.00;;;;;;5049934;28;20190;-83
2022/03/18 00:19:40;;;;;;;29.63;17.67;;;7.00;1.00;;;;;;5052271;28;20216;-82
2022/03/18 00:22:08;;;;;;;30.20;18.20;;;7.00;1.00;;;;;;5052276;28;20199;-83
2022/03/18 00:24:39;;;;;;;34.43;19.13;;;7.00;1.00;;;;;;5051867;28;20198;-82
2022/03/18 00:27:08;;;;;;;29.27;17.70;;;7.00;1.00;;;;;;5051926;28;20184;-82
2022/03/18 00:29:35;;;;;;;32.23;18.63;;;7.00;1.00;;;;;;5052096;28;20205;-82
2022/03/18 00:32:03;;;;;;;32.40;18.10;;;6.90;1.00;;;;;;5051677;28;20228;-83
2022/03/18 00:34:30;;;;;;;32.80;19.10;;;6.90;1.00;;;;;;5052171;28;20194;-84
2022/03/18 00:36:57;;;;;;;30.83;18.00;;;6.90;1.00;;;;;;5052122;28;20203;-84
2022/03/18 00:39:24;;;;;;;31.23;18.60;;;6.90;1.00;;;;;;5051771;28;20562;-85
2022/03/18 00:41:53;;;;;;;33.07;18.80;;;6.90;1.00;;;;;;5051965;28;20201;-82
2022/03/18 00:44:20;;;;;;;31.17;19.23;;;6.80;1.00;;;;;;5052111;28;20189;-82
2022/03/18 00:46:47;;;;;;;30.77;18.20;;;6.80;1.00;;;;;;5035206;28;20194;-83
2022/03/18 00:52:05;;;;;;;34.83;18.97;;;6.70;1.00;;;;;;5052035;28;20296;-84
2022/03/18 00:54:34;;;;;;;33.37;17.70;;;6.60;1.00;;;;;;5051717;28;20268;-82
2022/03/18 00:57:03;;;;;;;33.43;18.77;;;6.50;1.00;;;;;;5051715;28;20200;-82
2022/03/18 00:59:30;;;;;;;33.57;18.97;;;6.50;1.00;;;;;;5052205;28;20191;-82
2022/03/18 01:01:58;;;;;;;37.43;20.17;;;6.40;1.00;;;;;;5052035;28;20204;-82
2022/03/18 01:04:28;;;;;;;37.27;18.93;;;6.30;1.00;;;;;;5051770;28;20193;-83
2022/03/18 01:06:56;;;;;;;35.17;19.40;;;6.30;1.00;;;;;;5051459;28;20192;-82
2022/03/18 01:09:25;;;;;;;31.27;19.40;;;6.20;1.00;;;;;;5051751;28;20217;-83
2022/03/18 01:11:54;;;;;;;32.40;19.53;;;6.20;1.00;;;;;;5051351;28;20247;-82
2022/03/18 01:14:23;;;;;;;38.40;20.27;;;6.20;1.00;;;;;;5051803;28;20197;-83
2022/03/18 01:16:50;;;;;;;36.87;20.73;;;6.20;1.00;;;;;;5036755;28;20193;-83
2022/03/18 01:19:18;;;;;;;33.73;20.43;;;6.10;1.00;;;;;;5035094;28;20189;-83
2022/03/18 01:21:45;;;;;;;36.97;21.10;;;6.10;1.00;;;;;;5035060;28;20200;-82
2022/03/18 01:24:12;;;;;;;38.23;20.40;;;6.10;1.00;;;;;;5035013;28;20205;-83
2022/03/18 01:26:40;;;;;;;37.87;21.63;;;6.10;1.00;;;;;;5034925;28;20200;-84
2022/03/18 01:29:07;;;;;;;39.70;20.50;;;6.10;1.00;;;;;;5034869;28;20720;-84
2022/03/18 01:31:36;;;;;;;40.17;22.63;;;6.10;1.00;;;;;;5035085;28;20194;-83
2022/03/18 01:34:03;;;;;;;36.47;22.37;;;6.10;1.00;;;;;;5034837;28;20606;-82
2022/03/18 01:36:30;;;;;;;42.63;22.13;;;6.10;1.00;;;;;;5034976;28;20189;-82
2022/03/18 01:38:57;;;;;;;41.47;23.00;;;6.10;1.00;;;;;;5035114;28;20222;-82
2022/03/18 01:41:24;;;;;;;42.20;24.73;;;6.00;1.00;;;;;;5035091;28;20199;-83
2022/03/18 01:43:51;;;;;;;44.90;23.83;;;6.00;1.00;;;;;;5034571;28;20205;-83
2022/03/18 01:46:19;;;;;;;41.87;24.07;;;6.00;1.00;;;;;;5049627;28;20266;-82
2022/03/18 01:48:48;;;;;;;43.33;24.80;;;6.00;1.00;;;;;;5054766;28;20192;-83
2022/03/18 01:51:16;;;;;;;40.97;24.67;;;5.90;1.00;;;;;;5054434;28;20197;-83
2022/03/18 01:54:43;;;;;;;45.33;24.93;;;5.90;1.00;;;;;;5052931;28;20303;-83
2022/03/18 01:56:35;;;;;;;46.07;25.53;;;5.90;1.00;;;;;;5054836;28;20592;-83
2022/03/18 01:59:02;;;;;;;48.47;25.30;;;5.80;1.00;;;;;;5054778;28;20192;-84
2022/03/18 02:01:29;;;;;;;46.80;25.13;;;5.80;1.00;;;;;;5051717;28;20270;-82
2022/03/18 02:03:57;;;;;;;44.13;24.93;;;5.70;2.40;;;;;;5034621;28;20201;-83
2022/03/18 02:06:24;;;;;;;47.97;25.93;;;5.60;10.90;;;;;;5034612;28;20197;-82
2022/03/18 02:08:51;;;;;;;44.23;24.77;;;5.60;19.30;;;;;;5034448;28;20247;-82
2022/03/18 02:11:18;;;;;;;43.93;25.27;;;5.50;28.20;;;;;;5034473;28;20238;-84
2022/03/18 02:13:49;;;;;;;49.27;25.53;;;5.40;43.20;;;;;;5046568;28;20220;-83
2022/03/18 02:16:16;;;;;;;44.23;23.20;;;5.40;46.00;;;;;;5053891;28;20251;-85
2022/03/18 02:18:43;;;;;;;40.83;23.50;;;5.30;64.50;;;;;;5054307;28;20596;-83
2022/03/18 02:21:14;;;;;;;39.00;23.03;;;5.30;60.20;;;;;;5054197;28;20192;-85
2022/03/18 02:23:44;;;;;;;50.83;24.73;;;5.20;91.20;;;;;;5054259;28;20274;-84
2022/03/18 02:26:15;;;;;;;42.30;23.67;;;5.10;94.90;;;;;;5053956;28;20282;-85
2022/03/18 02:28:42;;;;;;;40.43;22.03;;;5.10;98.30;;;;;;5053641;28;20633;-84
2022/03/18 02:31:09;;;;;;;38.13;21.27;;;5.00;99.90;;;;;;5054002;28;20251;-83
2022/03/18 02:33:36;;;;;;;37.20;21.33;;;5.00;99.90;;;;;;5053653;28;20220;-84
2022/03/18 02:36:04;;;;;;;41.83;21.50;;;5.00;99.90;;;;;;5053771;28;20773;-85
2022/03/18 02:38:31;;;;;;;37.47;21.70;;;5.00;99.90;;;;;;5053727;28;20228;-84
2022/03/18 02:40:59;;;;;;;40.97;22.53;;;4.90;99.90;;;;;;5053858;28;20195;-84
2022/03/18 02:43:26;;;;;;;38.37;20.93;;;5.00;99.90;;;;;;5042867;28;20241;-84
2022/03/18 02:45:53;;;;;;;40.77;22.13;;;5.00;99.90;;;;;;5033850;28;20254;-84
2022/03/18 02:48:20;;;;;;;39.87;20.87;;;5.00;99.10;;;;;;5033664;28;20205;-82
2022/03/18 02:50:47;;;;;;;36.70;20.70;;;5.00;97.70;;;;;;5033642;28;20198;-84
2022/03/18 02:53:14;;;;;;;38.13;20.87;;;5.00;95.90;;;;;;5033542;28;20275;-84
2022/03/18 02:55:41;;;;;;;41.40;21.67;;;5.00;98.40;;;;;;5033251;28;20189;-82
2022/03/18 02:58:10;;;;;;;39.60;22.80;;;4.90;96.30;;;;;;5033876;28;20197;-83
2022/03/18 03:00:37;;;;;;;39.87;21.53;;;4.90;95.00;;;;;;5033555;28;20204;-82
2022/03/18 03:03:04;;;;;;;41.33;22.03;;;4.90;95.00;;;;;;5033272;28;20201;-83
2022/03/18 03:08:16;;;;;;;43.23;21.53;;;4.80;96.20;;;;;;5033320;28;20591;-82
2022/03/18 03:10:43;;;;;;;43.03;21.90;;;4.80;94.10;;;;;;5032965;28;20200;-82
2022/03/18 03:13:11;;;;;;;40.03;22.73;;;4.80;94.20;;;;;;5043686;28;20321;-82
2022/03/18 03:15:39;;;;;;;43.03;23.77;;;4.80;99.90;;;;;;5052618;28;20669;-84
2022/03/18 03:18:07;;;;;;;41.70;21.60;;;4.80;92.30;;;;;;5053354;28;20196;-82
2022/03/18 03:20:34;;;;;;;41.27;22.77;;;4.80;90.70;;;;;;5052808;28;20189;-82
2022/03/18 03:23:01;;;;;;;41.13;22.57;;;4.80;86.10;;;;;;5045627;28;20587;-83
2022/03/18 03:25:29;;;;;;;43.50;23.63;;;4.80;83.90;;;;;;5032683;28;20284;-82
2022/03/18 03:27:56;;;;;;;44.23;22.63;;;4.80;79.10;;;;;;5032996;28;20199;-82
2022/03/18 03:30:25;;;;;;;45.90;23.93;;;4.80;74.30;;;;;;5032988;28;20255;-82
2022/03/18 03:32:52;;;;;;;46.63;23.77;;;4.80;71.50;;;;;;5032870;28;20193;-81
2022/03/18 03:35:19;;;;;;;46.03;24.90;;;4.80;70.00;;;;;;5032592;28;20645;-83
2022/03/18 03:37:47;;;;;;;44.50;24.37;;;4.80;71.50;;;;;;5032496;28;20262;-82
2022/03/18 03:40:14;;;;;;;45.67;24.07;;;4.80;72.20;;;;;;5032030;28;20192;-83
2022/03/18 03:42:42;;;;;;;47.83;24.77;;;4.80;68.20;;;;;;5033292;28;20279;-82
2022/03/18 03:45:11;;;;;;;48.27;27.37;;;4.80;68.10;;;;;;5032889;28;20211;-84
2022/03/18 03:47:40;;;;;;;51.20;27.80;;;4.80;68.80;;;;;;5032356;28;20669;-83
2022/03/18 03:50:09;;;;;;;46.10;24.57;;;4.80;69.80;;;;;;5032269;28;20529;-82
2022/03/18 03:52:36;;;;;;;46.90;25.60;;;4.80;78.50;;;;;;5050533;28;20199;-82
2022/03/18 03:55:05;;;;;;;47.80;26.17;;;4.80;88.20;;;;;;5052322;28;20220;-82
2022/03/18 03:57:32;;;;;;;45.40;25.23;;;4.70;94.60;;;;;;5052435;28;20250;-82
2022/03/18 03:59:59;;;;;;;49.40;25.67;;;4.60;96.10;;;;;;5041582;28;20584;-83
2022/03/18 04:02:27;;;;;;;47.17;26.23;;;4.60;98.40;;;;;;5040546;28;20671;-83
2022/03/18 04:04:57;;;;;;;52.07;26.77;;;4.60;96.70;;;;;;5052186;28;20211;-82
2022/03/18 04:07:26;;;;;;;49.43;25.80;;;4.60;97.30;;;;;;5052488;28;20268;-82
2022/03/18 04:09:54;;;;;;;53.83;27.57;;;4.50;95.60;;;;;;5052000;28;20726;-82
2022/03/18 04:12:21;;;;;;;50.43;25.60;;;4.50;92.70;;;;;;5052232;28;20191;-82
2022/03/18 04:14:48;;;;;;;50.67;27.40;;;4.50;93.30;;;;;;5052326;28;20313;-81
2022/03/18 04:17:15;;;;;;;46.97;26.13;;;4.50;93.10;;;;;;5052398;28;20196;-82
2022/03/18 04:19:47;;;;;;;52.27;26.50;;;4.40;97.20;;;;;;5052521;28;20252;-81
2022/03/18 04:22:15;;;;;;;48.03;26.10;;;4.30;99.90;;;;;;5052281;28;20604;-82
2022/03/18 04:24:42;;;;;;;45.63;25.47;;;4.20;99.90;;;;;;5052054;28;20722;-84
2022/03/18 04:27:09;;;;;;;48.57;26.63;;;4.20;99.90;;;;;;5052209;28;20199;-83
2022/03/18 04:29:36;;;;;;;55.37;28.07;;;4.20;99.90;;;;;;5051852;28;20248;-84
2022/03/18 04:32:04;;;;;;;53.93;26.17;;;4.10;99.90;;;;;;5046417;28;20237;-83
2022/03/18 04:34:31;;;;;;;45.03;25.27;;;4.10;99.90;;;;;;5031782;28;20693;-84
2022/03/18 04:36:58;;;;;;;48.53;26.23;;;4.10;99.90;;;;;;5031873;28;20201;-82
2022/03/18 04:39:26;;;;;;;51.87;27.63;;;4.00;99.90;;;;;;5032203;28;20228;-82
2022/03/18 04:41:53;;;;;;;53.40;27.53;;;4.00;99.90;;;;;;5049019;28;20203;-82
2022/03/18 04:44:20;;;;;;;51.67;25.93;;;4.00;99.90;;;;;;5051993;28;20195;-82
2022/03/18 04:46:48;;;;;;;47.47;25.60;;;3.90;99.90;;;;;;5052050;28;20196;-83
2022/03/18 04:49:16;;;;;;;50.80;26.97;;;3.90;99.90;;;;;;5052220;28;20227;-82
2022/03/18 04:51:43;;;;;;;50.17;26.27;;;3.80;99.90;;;;;;5053768;28;20220;-83
2022/03/18 04:54:10;;;;;;;53.50;26.80;;;3.80;99.90;;;;;;5055679;28;20217;-82
2022/03/18 04:59:23;;;;;;;50.70;27.67;;;3.70;99.90;;;;;;5055554;28;20180;-81
2022/03/18 05:01:50;;;;;;;51.13;27.43;;;3.70;99.90;;;;;;5052101;28;20214;-82
2022/03/18 05:04:17;;;;;;;53.00;28.27;;;3.70;99.90;;;;;;5035431;28;20249;-82
2022/03/18 05:06:44;;;;;;;52.27;27.97;;;3.60;99.90;;;;;;5035873;28;20197;-84
2022/03/18 05:09:11;;;;;;;58.30;33.57;;;3.60;99.90;;;;;;5036193;28;20193;-83
2022/03/18 05:11:57;;;;;;;57.67;28.20;;;3.60;99.90;;;;;;5035628;28;20193;-82
2022/03/18 05:14:24;;;;;;;52.97;28.47;;;3.50;99.90;;;;;;5035462;28;20197;-82
2022/03/18 05:16:52;;;;;;;56.67;28.73;;;3.50;99.90;;;;;;5035075;28;20638;-83
2022/03/18 05:19:19;;;;;;;56.87;29.33;;;3.40;99.90;;;;;;5036149;28;20198;-82
2022/03/18 05:21:46;;;;;;;55.47;27.90;;;3.40;99.90;;;;;;5036496;28;20201;-82
2022/03/18 05:24:13;;;;;;;55.73;30.30;;;3.40;99.90;;;;;;5035181;28;20248;-81
2022/03/18 05:26:41;;;;;;;57.57;28.70;;;3.40;99.90;;;;;;5040295;28;20198;-83
2022/03/18 05:29:09;;;;;;;57.93;29.30;;;3.40;99.90;;;;;;5039484;28;20646;-84
2022/03/18 05:31:36;;;;;;;56.83;28.93;;;3.40;99.90;;;;;;5041647;28;20197;-82
2022/03/18 05:34:03;;;;;;;52.13;28.30;;;3.40;99.90;;;;;;5048440;28;20271;-84
2022/03/18 05:36:31;;;;;;;56.73;29.67;;;3.40;99.90;;;;;;5062195;28;20645;-80
2022/03/18 05:38:59;;;;;;;53.40;28.43;;;3.50;99.90;;;;;;5063912;28;20244;-81
2022/03/18 05:41:26;;;;;;;61.53;30.43;;;3.50;99.90;;;;;;5061302;28;20197;-83
2022/03/18 05:43:55;;;;;;;53.90;29.87;;;3.50;99.90;;;;;;5057544;28;20668;-83
2022/03/18 05:46:22;;;;;;;55.47;29.43;;;3.60;99.90;;;;;;5057415;28;20222;-81
2022/03/18 05:48:49;;;;;;;53.47;28.70;;;3.60;99.90;;;;;;5057175;28;20257;-85
2022/03/18 05:51:16;;;;;;;54.77;28.00;;;3.70;99.90;;;;;;5057465;28;20194;-83
2022/03/18 05:53:43;;;;;;;53.90;27.93;;;3.70;99.90;;;;;;5062275;28;20263;-82
2022/03/18 05:59:00;;;;;;;50.60;28.60;;;3.90;99.90;;;;;;5056586;28;20233;-84
2022/03/18 06:01:27;;;;;;;54.90;29.67;;;4.00;99.90;;;;;;5058585;28;20202;-85
2022/03/18 06:03:54;;;;;;;49.30;27.73;;;4.20;99.90;;;;;;5042284;28;20209;-81
2022/03/18 06:06:31;;;;;;;56.90;28.90;;;4.30;99.90;;;;;;5038068;28;20197;-87
2022/03/18 06:11:56;;;;;;;49.80;28.63;;;4.60;99.90;;;;;;5058890;28;20548;-84
2022/03/18 06:14:26;;;;;;;53.83;28.63;;;4.70;99.90;;;;;;5058085;28;20616;-82
2022/03/18 06:16:54;;;;;;;53.37;29.43;;;4.90;99.90;;;;;;5058039;28;20197;-82
2022/03/18 06:19:26;;;;;;;54.83;28.67;;;5.10;99.90;;;;;;5060771;28;20192;-87
2022/03/18 06:21:53;;;;;;;53.57;27.97;;;5.20;99.90;;;;;;5060798;28;20217;-84
2022/03/18 06:24:21;;;;;;;54.20;29.57;;;5.30;99.90;;;;;;5060836;28;20201;-83
2022/03/18 06:26:51;;;;;;;49.67;27.77;;;5.40;99.90;;;;;;5058183;28;20601;-84
2022/03/18 06:29:22;;;;;;;49.07;27.60;;;5.50;99.90;;;;;;5058702;28;20182;-86
2022/03/18 06:31:51;;;;;;;51.20;28.83;;;5.50;99.90;;;;;;5055970;28;20200;-87
2022/03/18 06:34:23;;;;;;;57.20;30.73;;;5.60;99.90;;;;;;5054752;28;20225;-83
2022/03/18 06:36:51;;;;;;;59.47;31.00;;;5.60;99.90;;;;;;5052909;28;20186;-83
2022/03/18 06:39:19;;;;;;;54.07;28.87;;;5.70;99.90;;;;;;5042240;28;20277;-83
2022/03/18 06:41:52;;;;;;;50.60;27.50;;;5.80;99.90;;;;;;5035994;28;20200;-83
2022/03/18 06:44:19;;;;;;;52.63;28.83;;;5.90;99.90;;;;;;5036914;28;20194;-86
2022/03/18 06:46:46;;;;;;;55.80;29.50;;;6.00;99.90;;;;;;5035441;28;20240;-83
2022/03/18 06:49:15;;;;;;;53.97;29.03;;;6.00;99.90;;;;;;5034648;28;20267;-85
2022/03/18 06:51:42;;;;;;;52.00;27.37;;;5.90;99.90;;;;;;5033433;28;20205;-81
2022/03/18 06:54:09;;;;;;;53.37;28.17;;;5.90;99.90;;;;;;5035462;28;20605;-85
2022/03/18 06:56:38;;;;;;;52.93;29.20;;;6.00;99.90;;;;;;5056694;28;20177;-84
2022/03/18 06:59:05;;;;;;;51.60;27.97;;;6.00;99.90;;;;;;5057285;28;20193;-83
2022/03/18 07:01:32;;;;;;;51.40;27.67;;;6.00;99.90;;;;;;5053991;28;20243;-83
2022/03/18 07:03:59;;;;;;;53.30;28.83;;;6.10;99.90;;;;;;5054114;28;20201;-82
2022/03/18 07:06:29;;;;;;;52.20;27.60;;;6.20;99.90;;;;;;5051618;28;20193;-82
2022/03/18 07:08:56;;;;;;;49.00;28.73;;;6.20;99.90;;;;;;5056269;28;20246;-82
2022/03/18 07:11:23;;;;;;;49.93;27.70;;;6.30;99.90;;;;;;5056729;28;20201;-83
2022/03/18 07:13:53;;;;;;;51.53;27.83;;;6.40;99.90;;;;;;5058099;28;20202;-86
2022/03/18 07:19:05;;;;;;;47.47;26.53;;;7.50;99.90;;;;;;5032979;28;20204;-84
2022/03/18 07:21:34;;;;;;;48.17;25.23;;;8.50;99.90;;;;;;5038603;28;20201;-84
2022/03/18 07:24:01;;;;;;;45.17;25.60;;;9.10;99.90;;;;;;5034572;28;20693;-82
2022/03/18 07:26:29;;;;;;;46.40;25.13;;;9.30;37.30;;;;;;5044844;28;20257;-85
2022/03/18 07:28:57;;;;;;;46.17;25.27;;;9.30;1.00;;;;;;5052481;28;20569;-85
2022/03/18 07:31:24;;;;;;;38.13;22.93;;;9.40;1.00;;;;;;5053759;28;20216;-84
2022/03/18 07:33:52;;;;;;;34.83;19.13;;;9.70;1.00;;;;;;5054142;28;20284;-85
2022/03/18 07:36:30;;;;;;;32.07;19.07;;;10.30;1.00;;;;;;5058770;28;20220;-83
2022/03/18 07:38:59;;;;;;;36.67;19.30;;;11.30;1.00;;;;;;5052838;28;20218;-84
2022/03/18 07:41:26;;;;;;;30.30;19.13;;;12.40;1.00;;;;;;5055162;28;20611;-84
2022/03/18 07:43:55;;;;;;;34.42;21.85;;;13.20;1.00;;;;;;5061789;28;20250;-83
2022/03/18 07:46:23;;;;;;;35.00;21.35;;;13.80;1.00;;;;;;5054829;28;20211;-84
2022/03/18 07:48:53;;;;;;;34.80;21.80;;;14.60;1.00;;;;;;5053434;28;20189;-87
2022/03/18 07:51:20;;;;;;;35.10;20.80;;;15.40;1.00;;;;;;5052438;28;20630;-85
2022/03/18 07:53:47;;;;;;;35.22;21.40;;;16.10;1.00;;;;;;5055762;28;20192;-84
2022/03/18 07:56:15;;;;;;;35.20;20.73;;;16.60;1.00;;;;;;5034353;28;20222;-85
2022/03/18 07:58:45;;;;;;;30.40;19.30;;;17.20;1.00;;;;;;5037352;28;20174;-86
2022/03/18 08:01:12;;;;;;;31.33;18.63;;;17.50;1.00;;;;;;5032526;28;20201;-85
2022/03/18 08:03:39;;;;;;;36.10;22.10;;;17.90;1.00;;;;;;5040502;28;20598;-86
2022/03/18 08:06:07;;;;;;;30.27;19.65;;;18.40;1.00;;;;;;5035195;28;20197;-87
2022/03/18 08:08:34;;;;;;;32.42;21.80;;;18.80;1.00;;;;;;5035175;28;20190;-85
2022/03/18 08:11:01;;;;;;;32.78;21.77;;;19.20;1.00;;;;;;5042585;28;20247;-84
2022/03/18 08:13:30;;;;;;;36.20;21.25;;;19.50;1.00;;;;;;5053805;28;20653;-83
2022/03/18 08:19:24;;;;;;;34.63;20.65;;;19.90;1.00;;;;;;5046414;28;20181;-84
2022/03/18 08:21:51;;;;;;;34.70;19.67;;;20.40;1.00;;;;;;5033800;28;20193;-85
2022/03/18 08:24:19;;;;;;;27.00;19.40;;;20.80;1.00;;;;;;5037033;28;20603;-84
2022/03/18 08:26:46;;;;;;;30.13;20.65;;;21.20;1.00;;;;;;5039178;28;20193;-84
2022/03/18 08:29:14;;;;;;;34.22;20.77;;;21.70;1.00;;;;;;5037688;28;20190;-84
2022/03/18 08:31:44;;;;;;;30.50;20.88;;;22.20;1.00;;;;;;5040339;28;20251;-85
2022/03/18 08:34:11;;;;;;;47.42;29.50;;;22.70;1.00;;;;;;5037733;28;20201;-84
2022/03/18 08:36:38;;;;;;;32.47;21.15;;;23.10;1.00;;;;;;5038838;28;20193;-84
2022/03/18 08:39:10;;;;;;;30.27;20.83;;;23.30;1.00;;;;;;5044888;28;20248;-83
2022/03/18 08:41:36;;;;;;;29.27;19.77;;;23.60;1.00;;;;;;5048565;28;20187;-84
2022/03/18 08:44:04;;;;;;;39.17;27.15;;;23.90;1.00;;;;;;5056636;28;20189;-84
2022/03/18 08:46:34;;;;;;;30.70;20.48;;;24.00;1.00;;;;;;5057286;28;20244;-84
2022/03/18 08:49:01;;;;;;;28.70;20.40;;;24.10;1.00;;;;;;5057890;28;20229;-86
2022/03/18 08:51:29;;;;;;;30.35;19.85;;;24.30;1.00;;;;;;5058391;28;20193;-88
2022/03/18 08:53:56;;;;;;;30.80;20.95;;;24.30;1.00;;;;;;5056691;28;20204;-85
2022/03/18 08:56:23;;;;;;;31.58;20.77;;;24.40;1.00;;;;;;5059065;28;20197;-83
2022/03/18 08:58:55;;;;;;;29.70;20.17;;;24.10;1.00;;;;;;5059745;28;20189;-84
2022/03/18 09:01:25;;;;;;;33.80;20.83;;;23.90;1.00;;;;;;5065470;28;20193;-84
2022/03/18 09:03:53;;;;;;;30.67;20.35;;;24.00;1.00;;;;;;5055456;28;20631;-84
2022/03/18 09:06:23;;;;;;;34.10;23.60;;;24.20;1.00;;;;;;5058499;28;20217;-84
2022/03/18 09:08:50;;;;;;;29.98;20.40;;;24.30;1.00;;;;;;5058543;28;20197;-84
2022/03/18 09:11:17;;;;;;;43.65;26.20;;;24.40;1.00;;;;;;5049102;28;20243;-85
2022/03/18 09:13:48;;;;;;;27.65;20.48;;;24.40;1.00;;;;;;5036603;28;20189;-82
2022/03/18 09:16:15;;;;;;;30.08;20.13;;;24.20;1.00;;;;;;5038219;28;20263;-84
2022/03/18 09:18:42;;;;;;;35.63;21.40;;;24.30;1.00;;;;;;5038028;28;20255;-83
2022/03/18 09:21:10;;;;;;;26.77;19.60;;;24.40;1.00;;;;;;5037094;28;20197;-85
2022/03/18 09:23:39;;;;;;;29.13;19.92;;;24.60;1.00;;;;;;5040588;28;20194;-85
2022/03/18 09:26:06;;;;;;;29.17;20.55;;;24.50;1.00;;;;;;5035414;28;20244;-85
2022/03/18 09:28:33;;;;;;;34.63;20.40;;;24.50;1.00;;;;;;5038464;28;20193;-85
2022/03/18 09:31:01;;;;;;;27.48;20.00;;;24.50;1.00;;;;;;5035249;28;20193;-87
2022/03/18 09:33:28;;;;;;;33.03;20.75;;;24.50;1.00;;;;;;5037411;28;20194;-85
2022/03/18 09:35:55;;;;;;;31.08;21.52;;;24.30;1.00;;;;;;5037479;28;20197;-85
2022/03/18 09:38:29;;;;;;;28.23;20.85;;;24.30;1.00;;;;;;5034317;28;20682;-85
2022/03/18 09:40:56;;;;;;;44.28;22.60;;;24.30;1.00;;;;;;5038625;28;20192;-85
2022/03/18 09:43:24;;;;;;;36.35;23.15;;;23.80;1.00;;;;;;5036597;28;20658;-89
2022/03/18 09:45:51;;;;;;;32.00;22.10;;;23.30;1.00;;;;;;5040364;28;20228;-85
2022/03/18 09:48:18;;;;;;;32.08;22.30;;;22.80;1.00;;;;;;5042128;28;20220;-87
2022/03/18 09:50:46;;;;;;;31.38;21.58;;;22.40;1.00;;;;;;5035747;28;20202;-85
2022/03/18 09:53:15;;;;;;;32.33;22.08;;;22.40;1.00;;;;;;5040466;28;20204;-85
2022/03/18 09:55:46;;;;;;;30.60;22.08;;;22.00;1.00;;;;;;5041714;28;20201;-88
2022/03/18 09:58:13;;;;;;;30.58;21.95;;;21.20;1.00;;;;;;5035353;28;20193;-87
2022/03/18 10:00:40;;;;;;;33.20;23.85;;;20.10;1.00;;;;;;5034273;28;20220;-86
2022/03/18 10:03:09;;;;;;;38.13;23.55;;;19.10;1.00;;;;;;5035659;28;20198;-85
2022/03/18 10:05:46;;;;;;;35.58;23.73;;;18.30;1.00;;;;;;5034931;28;20221;-84
2022/03/18 10:08:13;;;;;;;33.58;22.52;;;17.70;1.00;;;;;;5037252;28;20255;-85
2022/03/18 10:10:47;;;;;;;32.72;23.10;;;17.30;1.00;;;;;;5043247;28;20182;-85
2022/03/18 10:13:15;;;;;;;35.83;23.42;;;17.00;1.00;;;;;;5048862;28;20204;-84
2022/03/18 10:15:42;;;;;;;36.00;22.77;;;16.80;1.00;;;;;;5053995;28;20265;-84
2022/03/18 10:18:11;;;;;;;35.55;22.52;;;16.40;1.00;;;;;;5056051;28;20202;-85
2022/03/18 10:20:40;;;;;;;34.38;21.63;;;16.30;1.00;;;;;;5057380;28;20265;-82
2022/03/18 10:23:20;;;;;;;33.10;20.67;;;16.10;1.00;;;;;;5058647;28;20249;-86
2022/03/18 10:25:53;;;;;;;33.93;19.37;;;15.80;1.00;;;;;;5050285;28;20228;-85
2022/03/18 10:28:40;;;;;;;28.63;19.37;;;15.50;1.00;;;;;;5044267;28;20252;-85
2022/03/18 10:31:12;;;;;;;32.13;18.17;;;15.40;1.00;;;;;;5043236;28;20205;-83
2022/03/18 10:39:28;;;;;;;30.10;20.00;;;14.70;1.00;;;;;;5044830;28;20274;-84
2022/03/18 10:42:00;;;;;;;32.43;19.27;;;14.70;1.00;;;;;;5054640;28;20203;-83
2022/03/18 10:44:28;;;;;;;32.70;19.50;;;14.50;1.00;;;;;;5054013;28;20659;-82
2022/03/18 10:46:57;;;;;;;31.90;18.87;;;14.40;1.00;;;;;;5056265;28;20276;-83
2022/03/18 10:49:24;;;;;;;33.03;19.53;;;14.40;1.00;;;;;;5053889;28;20221;-84
2022/03/18 10:51:53;;;;;;;29.67;19.50;;;14.30;1.00;;;;;;5054643;28;20242;-84
2022/03/18 10:54:28;;;;;;;31.47;19.03;;;14.30;1.00;;;;;;5055439;28;20199;-83
2022/03/18 10:56:59;;;;;;;33.43;19.83;;;14.20;1.00;;;;;;5054133;28;20268;-83
2022/03/18 10:59:28;;;;;;;28.77;17.73;;;14.20;1.00;;;;;;5053791;28;20198;-83
2022/03/18 11:01:56;;;;;;;30.77;19.33;;;14.10;1.00;;;;;;5054225;28;20276;-83
2022/03/18 11:04:26;;;;;;;29.63;18.73;;;14.00;1.00;;;;;;5047626;28;20248;-83
2022/03/18 11:12:32;;;;;;;30.43;19.03;;;14.10;1.00;;;;;;5041750;28;20656;-84
2022/03/18 11:15:03;;;;;;;29.00;18.40;;;14.00;1.00;;;;;;5058358;28;20279;-85
2022/03/18 11:17:31;;;;;;;28.87;18.70;;;14.00;1.00;;;;;;5054975;28;20217;-86
2022/03/18 11:20:01;;;;;;;31.10;18.73;;;14.10;1.00;;;;;;5053756;28;20194;-84
2022/03/18 11:22:29;;;;;;;29.73;19.10;;;14.10;1.00;;;;;;5054526;28;20193;-84
2022/03/18 11:24:59;;;;;;;29.17;18.57;;;14.20;1.00;;;;;;5054679;28;20195;-84
2022/03/18 11:27:26;;;;;;;32.17;19.00;;;14.20;1.00;;;;;;5053546;28;20241;-83
2022/03/18 11:30:19;;;;;;;28.73;17.30;;;14.30;1.00;;;;;;5054808;28;20201;-85
2022/03/18 11:33:21;;;;;;;27.40;17.13;;;14.40;1.00;;;;;;5061251;28;20200;-90
2022/03/18 11:36:25;;;;;;;24.17;15.10;;;14.30;1.00;;;;;;5047830;28;20218;-87
2022/03/18 11:39:11;;;;;;;25.77;16.27;;;14.20;1.00;;;;;;5000226;28;20741;-88
2022/03/18 11:41:55;;;;;;;26.63;16.57;;;14.10;1.00;;;;;;5004269;28;20286;-85
2022/03/18 11:44:46;;;;;;;25.90;16.53;;;14.00;1.00;;;;;;5037435;28;20250;-90
2022/03/18 11:47:48;;;;;;;25.73;16.73;;;13.90;1.00;;;;;;5055024;28;20213;-84
2022/03/18 11:50:47;;;;;;;27.33;17.40;;;13.90;1.00;;;;;;5057150;28;20276;-85
2022/03/18 11:53:51;;;;;;;28.57;16.73;;;13.80;1.00;;;;;;5064559;28;20189;-88
2022/03/18 11:56:20;;;;;;;27.33;17.03;;;13.70;1.00;;;;;;5061955;28;20204;-84
2022/03/18 11:58:47;;;;;;;27.57;16.50;;;13.80;1.00;;;;;;5054933;28;20202;-85
2022/03/18 12:01:40;;;;;;;29.67;17.50;;;13.70;1.00;;;;;;5058502;28;20242;-84
2022/03/18 12:04:07;;;;;;;25.00;16.33;;;13.70;1.00;;;;;;5052003;28;20529;-84
2022/03/18 12:07:27;;;;;;;25.67;16.57;;;13.70;1.00;;;;;;5065508;28;20270;-87
2022/03/18 12:09:57;;;;;;;27.70;16.50;;;13.70;1.00;;;;;;5041069;28;20698;-84
2022/03/18 12:12:31;;;;;;;27.03;16.70;;;13.70;1.00;;;;;;5037165;28;20195;-84
2022/03/18 12:15:05;;;;;;;27.20;17.03;;;13.70;1.00;;;;;;5038501;28;20228;-83
2022/03/18 12:17:40;;;;;;;24.33;15.67;;;13.70;1.00;;;;;;5036431;28;20646;-84
2022/03/18 12:20:08;;;;;;;25.77;16.17;;;13.70;1.00;;;;;;5033618;28;20654;-83
2022/03/18 12:22:41;;;;;;;25.33;16.57;;;13.70;1.00;;;;;;5033133;28;20195;-87
2022/03/18 12:25:09;;;;;;;65.93;17.03;;;13.70;1.00;;;;;;5035759;28;20194;-81
2022/03/18 12:27:39;;;;;;;23.50;16.13;;;13.70;1.00;;;;;;5031839;28;20223;-83
2022/03/18 12:30:10;;;;;;;22.10;14.40;;;13.70;1.00;;;;;;5032435;28;20227;-84
2022/03/18 12:32:40;;;;;;;27.27;16.50;;;13.60;1.00;;;;;;5032044;28;20620;-83
2022/03/18 12:35:10;;;;;;;24.63;15.87;;;13.50;1.00;;;;;;5047173;28;20212;-84
2022/03/18 12:37:40;;;;;;;26.30;15.20;;;13.50;1.00;;;;;;5051843;28;20220;-84
2022/03/18 12:40:10;;;;;;;27.03;15.50;;;13.60;1.00;;;;;;5053664;28;20596;-81
2022/03/18 12:42:47;;;;;;;28.00;17.33;;;13.60;1.00;;;;;;5054501;28;20354;-82
2022/03/18 12:45:24;;;;;;;27.47;17.10;;;13.70;1.00;;;;;;5054590;28;20185;-81
2022/03/18 12:47:54;;;;;;;29.47;17.50;;;13.70;1.00;;;;;;5051591;28;20204;-83
2022/03/18 12:50:24;;;;;;;25.17;17.40;;;13.60;1.00;;;;;;5048512;28;20278;-83
2022/03/18 12:52:53;;;;;;;28.07;18.37;;;13.60;1.00;;;;;;5045830;28;20653;-81
2022/03/18 12:55:22;;;;;;;26.27;17.40;;;13.60;1.00;;;;;;5039183;28;20261;-82
2022/03/18 12:57:49;;;;;;;27.20;16.70;;;13.60;1.00;;;;;;5052316;28;20198;-80
2022/03/18 13:00:17;;;;;;;31.10;17.40;;;13.70;1.00;;;;;;5053993;28;20266;-81
2022/03/18 13:02:45;;;;;;;27.20;16.77;;;13.80;1.00;;;;;;5052124;28;20276;-81
2022/03/18 13:05:15;;;;;;;28.63;17.00;;;14.00;1.00;;;;;;5053383;28;20187;-84
2022/03/18 13:07:42;;;;;;;28.93;17.60;;;14.10;1.00;;;;;;5051162;28;20747;-84
2022/03/18 13:10:13;;;;;;;32.73;18.67;;;14.30;1.00;;;;;;5050798;28;20655;-86
2022/03/18 13:12:44;;;;;;;25.07;17.53;;;14.20;1.00;;;;;;5050306;28;20784;-82
2022/03/18 13:15:15;;;;;;;28.53;18.03;;;14.20;1.00;;;;;;5055344;28;20278;-83
2022/03/18 13:17:44;;;;;;;30.23;18.47;;;14.30;1.00;;;;;;5055168;28;20548;-83
2022/03/18 13:20:27;;;;;;;26.80;17.93;;;14.30;1.00;;;;;;5050654;28;20201;-82
2022/03/18 13:22:55;;;;;;;32.80;18.43;;;14.30;1.00;;;;;;5053259;28;20198;-82